Harper, Kansas
Current Conditions -  °F | °C
As of 6:53 PM on Sunday 23 Nov 2014 (Local Time) from KICT Reporting Station
Overcast Overcast  
Wind Chill: 35°   Ceiling: 10000
Heat Index: 43°   Visibility: 10mi
Dew Point: 38°   Wind: 17mph
Humidity: 82%   Direction: 340°NNW
Pressure: 29.59"   Gusts: 26mph
Location:  37.29°N, 98.03°W
Report Text: KICT 240053Z 34015G23KT 10SM SCT043 SCT075 BKN100 OVC150 06/03 A2959 RMK AO2 RAE2355 SLP021 P0000 T00610033 $
Loading
Personal Weather Stations






























Interactive Weather Map New forecast layout! Learn more

10-Day Weather Forecast

Advertisements
Track Severe Weather on mobile